Time;durP1;ratioP1;P1;durP2;ratioP2;P2;SDS_P1;SDS_P2;PMS_P1;PMS_P2;Temp;Humidity;BMP_temperature;BMP_pressure;BME280_temperature;BME280_humidity;BME280_pressure;Samples;Min_cycle;Max_cycle;Signal;HPM_P1;HPM_P2
2024/01/21 00:00:32;;;;;;;3.13;1.17;;;;;;;4.50;100.00;99170.28;4996988;28;20090;-83
2024/01/21 00:03:01;;;;;;;1.42;0.90;;;;;;;4.46;100.00;99186.41;4998295;28;20096;-83
2024/01/21 00:05:32;;;;;;;3.05;1.20;;;;;;;4.44;100.00;99209.38;5003283;28;20050;-82
2024/01/21 00:08:01;;;;;;;1.13;0.80;;;;;;;4.49;100.00;99223.22;4993253;28;20060;-83
2024/01/21 00:10:32;;;;;;;0.85;0.70;;;;;;;4.54;100.00;99225.91;4997884;28;20050;-82
2024/01/21 00:13:01;;;;;;;1.67;1.00;;;;;;;4.52;100.00;99220.75;4988298;28;20614;-82
2024/01/21 00:15:29;;;;;;;2.00;1.20;;;;;;;4.54;100.00;99223.34;4990911;28;20054;-85
2024/01/21 00:17:58;;;;;;;2.97;1.15;;;;;;;4.54;100.00;99220.78;4991148;28;20105;-83
2024/01/21 00:20:36;;;;;;;2.22;0.98;;;;;;;4.52;100.00;99207.06;4997367;28;20149;-87
2024/01/21 00:23:07;;;;;;;1.67;0.75;;;;;;;4.45;100.00;99205.16;4995784;28;20054;-82
2024/01/21 00:25:35;;;;;;;1.50;0.90;;;;;;;4.43;100.00;99191.44;4999754;28;20101;-81
2024/01/21 00:28:05;;;;;;;3.45;1.20;;;;;;;4.40;100.00;99177.72;4995377;28;20039;-82
2024/01/21 00:30:36;;;;;;;4.55;1.73;;;;;;;4.40;100.00;99185.41;4995046;28;20054;-82
2024/01/21 00:33:05;;;;;;;2.83;1.10;;;;;;;4.41;100.00;99189.69;5000845;28;20074;-84
2024/01/21 00:35:34;;;;;;;1.10;0.95;;;;;;;4.44;100.00;99199.16;4994601;28;20133;-82
2024/01/21 00:38:03;;;;;;;2.33;0.90;;;;;;;4.47;100.00;99188.16;4989431;28;20065;-83
2024/01/21 00:40:44;;;;;;;2.30;0.90;;;;;;;4.47;100.00;99188.16;4993895;28;20497;-83
2024/01/21 00:43:13;;;;;;;2.17;1.33;;;;;;;4.44;100.00;99182.91;4976019;28;20053;-85
2024/01/21 00:45:42;;;;;;;2.17;1.10;;;;;;;4.43;100.00;99207.66;4974695;28;20130;-84
2024/01/21 00:48:18;;;;;;;2.22;1.33;;;;;;;4.36;100.00;99221.13;4972436;28;20062;-83
2024/01/21 00:50:47;;;;;;;1.50;0.88;;;;;;;4.31;100.00;99203.06;4974343;28;20066;-83
2024/01/21 00:53:19;;;;;;;0.85;0.75;;;;;;;4.27;100.00;99196.09;4969138;28;20082;-85
2024/01/21 00:55:50;;;;;;;1.95;1.13;;;;;;;4.24;100.00;99190.91;4971446;28;20054;-84
2024/01/21 00:58:23;;;;;;;1.67;1.08;;;;;;;4.17;100.00;99178.75;4974399;28;20126;-83
2024/01/21 01:00:54;;;;;;;2.70;1.33;;;;;;;4.20;100.00;99194.19;4976670;28;20146;-84
2024/01/21 01:03:24;;;;;;;1.80;1.52;;;;;;;4.18;100.00;99226.56;4973306;28;20046;-87
2024/01/21 01:06:00;;;;;;;1.58;1.02;;;;;;;4.17;100.00;99247.88;4982648;28;20137;-86
2024/01/21 01:29:07;;;;;;;2.75;1.27;;;;;;;4.20;100.00;99220.66;6106579;22;20030;-85
2024/01/21 01:31:36;;;;;;;1.88;1.05;;;;;;;4.16;100.00;99226.50;5032617;28;20057;-91
2024/01/21 01:34:08;;;;;;;5.57;1.35;;;;;;;4.08;100.00;99215.16;5049680;28;20080;-86
2024/01/21 02:00:10;;;;;;;2.20;1.02;;;;;;;3.66;100.00;99259.03;5663347;22;20057;-87
2024/01/21 03:21:26;;;;;;;3.08;1.55;;;;;;;3.39;100.00;99276.00;5772811;22;20159;-88
2024/01/21 03:36:46;;;;;;;3.70;1.73;;;;;;;3.31;100.00;99271.50;5871269;23;20119;-86
2024/01/21 03:39:15;;;;;;;2.95;1.52;;;;;;;3.27;100.00;99268.78;5044892;28;20065;-86
2024/01/21 03:41:45;;;;;;;2.13;1.25;;;;;;;3.25;100.00;99272.97;5039557;28;20057;-90
2024/01/21 03:44:18;;;;;;;3.47;1.80;;;;;;;3.27;100.00;99272.19;5035800;28;20100;-90
2024/01/21 03:46:47;;;;;;;6.97;1.50;;;;;;;3.35;100.00;99280.16;5036094;28;20045;-88
2024/01/21 03:49:16;;;;;;;2.83;1.70;;;;;;;3.38;100.00;99284.50;5035826;28;20053;-88
2024/01/21 03:52:04;;;;;;;3.47;1.33;;;;;;;3.41;100.00;99282.03;5034254;28;20072;-86
2024/01/21 03:54:33;;;;;;;3.70;1.58;;;;;;;3.42;100.00;99289.78;5038410;28;20057;-87
2024/01/21 03:57:02;;;;;;;3.70;1.65;;;;;;;3.46;100.00;99278.84;5033975;28;20108;-88
2024/01/21 03:59:40;;;;;;;3.22;1.60;;;;;;;3.47;100.00;99283.13;5035400;28;20053;-88
2024/01/21 04:55:59;;;;;;;6.32;3.10;;;;;;;4.06;100.00;99308.09;5060777;22;20120;-88
2024/01/21 04:58:28;;;;;;;4.60;2.67;;;;;;;4.10;100.00;99305.69;5035214;28;20100;-86
2024/01/21 05:01:03;;;;;;;3.95;2.60;;;;;;;4.12;100.00;99314.28;5041251;28;20061;-90
2024/01/21 05:19:05;;;;;;;4.88;2.10;;;;;;;4.11;100.00;99311.66;5343852;22;20037;-87
2024/01/21 05:21:42;;;;;;;9.35;2.88;;;;;;;4.13;100.00;99325.38;5035433;28;20060;-89
2024/01/21 05:24:12;;;;;;;3.70;2.40;;;;;;;4.07;100.00;99315.78;5035216;28;20053;-89
2024/01/21 05:27:10;;;;;;;4.40;2.22;;;;;;;4.14;100.00;99327.97;5034410;28;20058;-87
2024/01/21 05:29:43;;;;;;;6.35;2.78;;;;;;;4.16;100.00;99321.22;5032207;28;20127;-88
2024/01/21 05:45:22;;;;;;;6.00;3.28;;;;;;;4.19;100.00;99325.56;5059817;22;20064;-89
2024/01/21 05:47:55;;;;;;;5.93;3.42;;;;;;;4.25;100.00;99337.69;5018516;28;20061;-88
2024/01/21 05:50:24;;;;;;;4.57;2.50;;;;;;;4.26;100.00;99335.19;5033727;28;20103;-88
2024/01/21 05:53:05;;;;;;;4.60;2.28;;;;;;;4.21;100.00;99331.59;5035219;28;20046;-89
2024/01/21 06:42:08;;;;;;;4.65;2.10;;;;;;;4.14;100.00;99357.81;5994976;22;20049;-87
2024/01/21 06:44:38;;;;;;;4.25;2.15;;;;;;;4.09;100.00;99351.69;5041125;28;20061;-87
2024/01/21 06:47:09;;;;;;;3.58;2.40;;;;;;;4.16;100.00;99351.94;5032119;28;20140;-88
2024/01/21 06:49:45;;;;;;;4.07;2.25;;;;;;;4.15;100.00;99347.66;5034686;28;20069;-88
2024/01/21 06:52:14;;;;;;;4.97;2.15;;;;;;;4.18;100.00;99355.41;5033822;28;20049;-86
2024/01/21 06:54:43;;;;;;;6.38;2.50;;;;;;;4.15;100.00;99347.66;5032616;28;20136;-87
2024/01/21 06:57:27;;;;;;;4.88;2.30;;;;;;;4.20;100.00;99352.91;5033069;28;20053;-87
2024/01/21 06:59:56;;;;;;;6.30;2.50;;;;;;;4.25;100.00;99356.47;5033599;28;20117;-88
2024/01/21 07:02:25;;;;;;;5.45;2.65;;;;;;;4.28;100.00;99360.84;5038757;28;20061;-87
2024/01/21 07:05:01;;;;;;;3.78;2.78;;;;;;;4.29;100.00;99353.22;5040172;28;20050;-87
2024/01/21 07:07:30;;;;;;;4.22;2.40;;;;;;;4.29;100.00;99358.34;5040538;28;20056;-87
2024/01/21 07:10:00;;;;;;;5.22;2.88;;;;;;;4.31;100.00;99354.13;5045394;28;20050;-87
2024/01/21 07:12:45;;;;;;;4.10;2.17;;;;;;;4.29;100.00;99354.91;5038250;28;20059;-86
2024/01/21 07:20:26;;;;;;;6.60;2.40;;;;;;;4.30;100.00;99357.50;5180863;23;20049;-87
2024/01/21 07:22:55;;;;;;;6.40;2.70;;;;;;;4.31;100.00;99360.94;5027585;28;20049;-88
2024/01/21 07:25:24;;;;;;;5.22;2.85;;;;;;;4.33;100.00;99362.75;5033616;28;20226;-87
2024/01/21 07:28:05;;;;;;;6.18;2.45;;;;;;;4.36;100.00;99365.38;5037962;28;20063;-87
2024/01/21 07:30:34;;;;;;;7.90;3.40;;;;;;;4.34;100.00;99366.16;5039358;28;20049;-88
2024/01/21 07:33:03;;;;;;;5.90;3.42;;;;;;;4.35;100.00;99363.66;5028351;28;20103;-87
2024/01/21 07:35:41;;;;;;;;;;;;;;;;;;;;;
2024/01/21 07:38:10;;;;;;;12.50;4.38;;;;;;;4.44;100.00;99372.44;5037976;28;20174;-87
2024/01/21 07:40:39;;;;;;;11.93;4.25;;;;;;;4.47;100.00;99382.81;5041931;28;20050;-88
2024/01/21 07:43:12;;;;;;;7.15;3.42;;;;;;;4.41;100.00;99371.50;5044238;28;20057;-87
2024/01/21 07:45:47;;;;;;;6.00;3.03;;;;;;;4.46;100.00;99370.78;5025315;28;20103;-88
2024/01/21 07:48:16;;;;;;;4.97;3.00;;;;;;;4.48;100.00;99384.53;5036731;28;20042;-88
2024/01/21 07:50:46;;;;;;;4.53;3.17;;;;;;;4.49;100.00;99382.03;5028272;28;20077;-87
2024/01/21 07:53:17;;;;;;;5.22;3.08;;;;;;;4.45;100.00;99380.19;5042700;28;20041;-88
2024/01/21 07:55:49;;;;;;;6.78;3.20;;;;;;;4.52;100.00;99388.94;5035286;28;20057;-88
2024/01/21 07:58:20;;;;;;;8.30;4.13;;;;;;;4.50;100.00;99388.00;5021145;28;20050;-87
2024/01/21 08:00:49;;;;;;;7.18;3.58;;;;;;;4.47;100.00;99385.34;5042228;28;20072;-88
2024/01/21 08:03:19;;;;;;;11.68;4.95;;;;;;;4.47;100.00;99382.81;5032465;28;20057;-88
2024/01/21 08:05:50;;;;;;;6.75;3.08;;;;;;;4.48;100.00;99384.53;5040618;28;20071;-87
2024/01/21 08:08:19;;;;;;;5.90;3.13;;;;;;;4.50;100.00;99386.31;5033471;28;20133;-89
2024/01/21 08:10:48;;;;;;;5.65;3.28;;;;;;;4.55;100.00;99391.56;5032638;28;20057;-88
2024/01/21 08:13:26;;;;;;;6.05;2.95;;;;;;;4.55;100.00;99391.56;5024207;28;20053;-88
2024/01/21 08:15:57;;;;;;;7.13;3.75;;;;;;;4.57;100.00;99384.81;5024365;28;20087;-88
2024/01/21 08:18:26;;;;;;;7.38;3.22;;;;;;;4.51;100.00;99382.06;5028045;28;20049;-88
2024/01/21 18:43:39;;;;;;;1.75;0.65;;;;;;;7.29;100.00;99325.91;6176730;23;20021;-86
2024/01/21 18:46:08;;;;;;;0.80;0.52;;;;;;;7.31;100.00;99325.94;4951287;28;20175;-85
2024/01/21 18:51:18;;;;;;;1.77;0.80;;;;;;;7.40;100.00;99348.38;4955072;28;20047;-83
2024/01/21 18:53:47;;;;;;;1.40;0.93;;;;;;;7.46;100.00;99351.09;4954257;28;20141;-83
2024/01/21 18:56:26;;;;;;;2.97;1.00;;;;;;;7.51;100.00;99355.50;4956540;28;20139;-83
2024/01/21 18:58:57;;;;;;;1.40;0.75;;;;;;;7.55;100.00;99351.25;4957905;28;20074;-83
2024/01/21 19:01:26;;;;;;;1.88;1.60;;;;;;;7.62;100.00;99335.09;4959808;28;20074;-82
2024/01/21 19:03:54;;;;;;;2.55;1.35;;;;;;;7.66;100.00;99336.88;4957448;28;20063;-83
2024/01/21 19:06:24;;;;;;;1.67;0.90;;;;;;;7.64;100.00;99317.97;4967430;28;20059;-83
2024/01/21 19:08:53;;;;;;;4.72;1.85;;;;;;;7.72;100.00;99342.16;4957771;28;20066;-86
2024/01/21 19:11:22;;;;;;;2.70;1.58;;;;;;;7.81;100.00;99304.53;4961369;28;20055;-83
2024/01/21 19:13:51;;;;;;;19.40;10.75;;;;;;;7.76;100.00;99325.03;4944455;28;20043;-83
2024/01/21 19:16:22;;;;;;;3.47;1.02;;;;;;;7.89;100.00;99315.84;4951802;28;20053;-82
2024/01/21 19:18:58;;;;;;;25.73;9.90;;;;;;;7.98;100.00;99313.41;4955597;28;20082;-83
2024/01/21 19:21:27;;;;;;;11.32;5.38;;;;;;;8.07;100.00;99318.72;4957951;28;20086;-83
2024/01/21 19:23:56;;;;;;;1.98;1.20;;;;;;;8.15;100.00;99313.69;4963483;28;20055;-82
2024/01/21 19:26:30;;;;;;;5.70;2.75;;;;;;;8.21;100.00;99318.06;4958954;28;20059;-84
2024/01/21 19:28:59;;;;;;;6.68;2.70;;;;;;;8.27;100.00;99318.16;4958536;28;20529;-84
2024/01/21 19:31:29;;;;;;;2.20;1.38;;;;;;;8.35;100.00;99306.25;4960443;28;20062;-84
2024/01/21 19:33:58;;;;;;;1.52;1.20;;;;;;;8.45;100.00;99300.41;4961876;28;20081;-82
2024/01/21 19:36:39;;;;;;;4.40;1.63;;;;;;;8.53;100.00;99301.41;4961141;28;20065;-83
2024/01/21 19:39:07;;;;;;;2.50;1.27;;;;;;;8.60;100.00;99313.53;4958807;28;20054;-84
2024/01/21 19:41:36;;;;;;;4.10;1.83;;;;;;;8.60;100.00;99305.81;4964057;28;20090;-84
2024/01/21 19:44:08;;;;;;;6.00;1.85;;;;;;;8.65;100.00;99302.44;4961856;28;20047;-84
2024/01/21 19:46:44;;;;;;;2.97;2.10;;;;;;;8.70;100.00;99308.50;4956734;28;20058;-84
2024/01/21 19:49:12;;;;;;;3.63;1.88;;;;;;;8.75;100.00;99300.00;4956767;28;20073;-85
2024/01/21 19:51:45;;;;;;;2.08;1.60;;;;;;;8.83;100.00;99288.91;4958773;28;20059;-83
2024/01/21 19:54:16;;;;;;;3.17;1.75;;;;;;;8.82;100.00;99288.06;4961332;28;20094;-85
2024/01/21 19:56:45;;;;;;;4.63;2.75;;;;;;;8.91;100.00;99302.75;4961647;28;20067;-84
2024/01/21 19:59:14;;;;;;;2.55;1.33;;;;;;;8.95;100.00;99297.66;4958840;28;20081;-86
2024/01/21 20:01:44;;;;;;;5.10;1.88;;;;;;;8.97;100.00;99293.38;4958297;28;20048;-85
2024/01/21 20:04:31;;;;;;;2.75;1.90;;;;;;;9.04;100.00;99291.75;4959152;28;20058;-84
2024/01/21 20:07:00;;;;;;;2.85;1.40;;;;;;;9.16;100.00;99288.44;4953316;28;20046;-85
2024/01/21 20:09:38;;;;;;;;;;;;;;;;;;;;;
2024/01/21 20:12:08;;;;;;;2.70;1.50;;;;;;;9.30;100.00;99275.69;4954810;28;20054;-87
2024/01/21 20:14:37;;;;;;;2.08;1.25;;;;;;;9.34;100.00;99273.16;4945749;28;20063;-84
2024/01/21 20:17:09;;;;;;;1.95;1.10;;;;;;;9.42;100.00;99275.84;4949709;28;20133;-82
2024/01/21 20:19:41;;;;;;;1.00;0.88;;;;;;;9.46;100.00;99271.56;4956950;28;20059;-84
2024/01/21 20:22:09;;;;;;;2.00;1.27;;;;;;;9.49;100.00;99277.63;4951503;28;20043;-85
2024/01/21 20:24:38;;;;;;;2.40;1.55;;;;;;;9.50;100.00;99278.50;4946665;28;20470;-83
2024/01/21 20:27:07;;;;;;;4.18;1.10;;;;;;;9.50;100.00;99274.19;4952627;28;20087;-83
2024/01/21 20:29:38;;;;;;;1.55;1.25;;;;;;;9.57;100.00;99269.97;4952729;28;20086;-85
2024/01/21 20:32:09;;;;;;;2.25;1.20;;;;;;;9.61;100.00;99272.59;4952990;28;20051;-82
2024/01/21 20:34:38;;;;;;;3.40;1.52;;;;;;;9.62;100.00;99250.19;4953206;28;20885;-83
2024/01/21 20:37:07;;;;;;;1.95;1.20;;;;;;;9.73;100.00;99261.50;4952190;28;20046;-83
2024/01/21 20:39:36;;;;;;;1.92;1.10;;;;;;;9.76;100.00;99258.97;4955625;28;20087;-81
2024/01/21 20:42:13;;;;;;;2.35;1.13;;;;;;;9.82;100.00;99259.00;4958798;28;20097;-83
2024/01/21 20:44:42;;;;;;;3.47;1.63;;;;;;;9.88;100.00;99254.75;4957807;28;20066;-83
2024/01/21 20:47:13;;;;;;;2.13;1.60;;;;;;;9.92;100.00;99246.16;4957890;28;20047;-81
2024/01/21 20:49:47;;;;;;;1.88;1.20;;;;;;;9.96;100.00;99243.59;4957775;28;20047;-81
2024/01/21 20:52:16;;;;;;;2.83;1.50;;;;;;;9.90;100.00;99242.72;4957333;28;20054;-81
2024/01/21 20:54:46;;;;;;;5.45;1.13;;;;;;;9.93;100.00;99245.31;4958598;28;20298;-81
2024/01/21 20:57:15;;;;;;;1.92;1.00;;;;;;;9.92;100.00;99247.03;4959078;28;20055;-82
2024/01/21 20:59:44;;;;;;;2.10;1.25;;;;;;;9.93;100.00;99242.72;4958151;28;20071;-82
2024/01/21 21:02:17;;;;;;;1.40;1.10;;;;;;;9.97;100.00;99247.06;4959053;28;20074;-82
2024/01/21 21:04:46;;;;;;;;;;;;;;;9.89;100.00;99220.31;4959558;28;20462;-83
2024/01/21 21:07:15;;;;;;;4.53;1.40;;;;;;;9.95;100.00;99247.06;4955538;28;19930;-82
2024/01/21 21:09:57;;;;;;;1.65;1.35;;;;;;;9.99;100.00;99250.53;4958150;28;20070;-81
2024/01/21 21:12:28;;;;;;;4.20;1.55;;;;;;;9.99;100.00;99233.31;4956127;28;20145;-83
2024/01/21 21:14:57;;;;;;;5.70;1.45;;;;;;;10.07;100.00;99230.78;4949927;28;20668;-83
2024/01/21 21:17:33;;;;;;;1.85;1.45;;;;;;;10.13;100.00;99230.81;4948134;28;20121;-83
2024/01/21 21:20:02;;;;;;;2.33;1.40;;;;;;;10.16;100.00;99229.97;4956894;28;20502;-83
2024/01/21 21:22:31;;;;;;;2.10;1.52;;;;;;;10.17;100.00;99222.25;4957646;28;20058;-82
2024/01/21 21:25:00;;;;;;;2.25;1.30;;;;;;;10.19;100.00;99225.72;4958883;28;20059;-83
2024/01/21 21:27:38;;;;;;;2.33;1.10;;;;;;;10.21;100.00;99225.69;4955258;28;20047;-82
2024/01/21 21:30:08;;;;;;;2.03;1.10;;;;;;;10.21;100.00;99213.63;4957938;28;20146;-82
2024/01/21 21:32:38;;;;;;;3.20;1.40;;;;;;;10.29;100.00;99218.03;4957729;28;20043;-83
2024/01/21 21:35:10;;;;;;;2.88;1.23;;;;;;;10.38;100.00;99213.78;4960227;28;20055;-83
2024/01/21 21:37:39;;;;;;;1.33;0.90;;;;;;;10.47;100.00;99210.38;4957178;28;20570;-84
2024/01/21 21:40:09;;;;;;;1.38;0.90;;;;;;;10.52;100.00;99213.84;4959126;28;20084;-83
2024/01/21 21:42:38;;;;;;;1.95;1.00;;;;;;;10.56;100.00;99209.53;4961941;28;20050;-86
2024/01/21 21:45:07;;;;;;;1.38;0.80;;;;;;;10.62;100.00;99210.44;4956682;28;20055;-83
2024/01/21 21:47:42;;;;;;;1.83;0.80;;;;;;;10.72;100.00;99201.00;4953991;28;20142;-83
2024/01/21 21:50:11;;;;;;;1.20;0.80;;;;;;;10.81;100.00;99200.16;4961397;28;20406;-82
2024/01/21 21:52:40;;;;;;;1.35;0.85;;;;;;;10.91;100.00;99194.16;4954165;28;20055;-83
2024/01/21 21:55:23;;;;;;;0.60;0.50;;;;;;;11.01;100.00;99193.31;4953809;28;20099;-84
2024/01/21 21:57:52;;;;;;;3.20;0.50;;;;;;;11.05;100.00;99189.03;4955408;28;20057;-85
2024/01/21 22:00:21;;;;;;;1.63;0.63;;;;;;;11.08;100.00;99195.06;4958450;28;20059;-83
2024/01/21 22:03:04;;;;;;;1.42;1.00;;;;;;;11.13;100.00;99191.63;4957406;28;20293;-85
2024/01/21 22:05:33;;;;;;;0.20;0.20;;;;;;;11.17;100.00;99202.00;4961978;28;20058;-83
2024/01/21 22:08:02;;;;;;;0.60;0.32;;;;;;;11.16;100.00;99207.19;4960645;28;20047;-84
2024/01/21 22:10:31;;;;;;;1.60;0.63;;;;;;;11.17;100.00;99208.91;4964090;28;20082;-82
2024/01/21 22:13:02;;;;;;;1.00;0.50;;;;;;;11.19;100.00;99209.78;4955731;28;20129;-84
2024/01/21 22:15:31;;;;;;;1.25;0.77;;;;;;;11.18;100.00;99210.63;4950755;28;20055;-82
2024/01/21 22:18:02;;;;;;;0.93;0.60;;;;;;;11.22;100.00;99212.34;4950142;28;20055;-84
2024/01/21 22:20:31;;;;;;;3.00;0.93;;;;;;;11.17;100.00;99219.25;4964353;28;20141;-82
2024/01/21 22:23:09;;;;;;;1.13;0.73;;;;;;;11.12;100.00;99211.47;4957120;28;20102;-84
2024/01/21 22:25:38;;;;;;;1.42;0.98;;;;;;;11.14;100.00;99214.09;4956209;28;20137;-84
2024/01/21 22:28:07;;;;;;;2.17;0.80;;;;;;;11.15;100.00;99216.66;4961905;28;20506;-85
2024/01/21 22:30:38;;;;;;;2.47;0.82;;;;;;;11.13;100.00;99212.34;4963490;28;20151;-83
2024/01/21 22:33:12;;;;;;;1.73;0.77;;;;;;;11.13;100.00;99220.09;4966867;28;20510;-85
2024/01/21 22:35:40;;;;;;;0.90;0.50;;;;;;;11.09;100.00;99222.69;4958108;28;20051;-83
2024/01/21 22:38:09;;;;;;;0.50;0.50;;;;;;;11.10;100.00;99224.41;4957107;28;20051;-83
2024/01/21 22:40:38;;;;;;;2.42;0.65;;;;;;;11.06;100.00;99217.50;4959018;28;20055;-83
2024/01/21 22:43:10;;;;;;;1.00;0.60;;;;;;;11.04;100.00;99224.41;4958530;28;20047;-83
2024/01/21 22:45:40;;;;;;;2.08;0.75;;;;;;;11.00;100.00;99222.66;4957927;28;20067;-86
2024/01/21 22:48:11;;;;;;;1.00;0.80;;;;;;;11.00;100.00;99226.97;4959301;28;20043;-84
2024/01/21 22:50:41;;;;;;;0.73;0.40;;;;;;;10.99;100.00;99226.09;4956165;28;20052;-83
2024/01/21 22:53:12;;;;;;;0.80;0.50;;;;;;;11.05;100.00;99217.50;4954897;28;20305;-83
2024/01/21 22:55:41;;;;;;;1.35;0.60;;;;;;;11.07;100.00;99213.19;4960060;28;20059;-84
2024/01/21 22:58:09;;;;;;;0.73;0.60;;;;;;;11.07;100.00;99214.06;4957587;28;20051;-82
2024/01/21 23:00:39;;;;;;;0.90;0.40;;;;;;;11.09;100.00;99220.09;4957885;28;20051;-83
2024/01/21 23:03:18;;;;;;;0.80;0.47;;;;;;;11.11;100.00;99223.56;4959269;28;20545;-85
2024/01/21 23:05:47;;;;;;;0.85;0.60;;;;;;;11.10;100.00;99224.41;4963777;28;20053;-83
2024/01/21 23:08:16;;;;;;;2.03;0.50;;;;;;;11.09;100.00;99220.09;4958003;28;20055;-84
2024/01/21 23:10:44;;;;;;;0.60;0.40;;;;;;;11.07;100.00;99224.41;4957264;28;20135;-83
2024/01/21 23:13:16;;;;;;;5.65;0.60;;;;;;;11.07;100.00;99228.72;4948582;28;20147;-84
2024/01/21 23:15:45;;;;;;;0.80;0.40;;;;;;;11.05;100.00;99225.25;4949746;28;20141;-83
2024/01/21 23:18:17;;;;;;;0.52;0.40;;;;;;;11.07;100.00;99224.41;4949838;28;20047;-83
2024/01/21 23:20:45;;;;;;;0.68;0.50;;;;;;;11.10;100.00;99227.00;4959016;28;20482;-83
2024/01/21 23:23:17;;;;;;;1.58;0.47;;;;;;;11.09;100.00;99207.16;4956320;28;20055;-84
2024/01/21 23:25:46;;;;;;;0.30;0.25;;;;;;;11.19;100.00;99218.41;4960073;28;20082;-84
2024/01/21 23:28:15;;;;;;;0.60;0.50;;;;;;;11.22;100.00;99213.22;4957595;28;20118;-84
2024/01/21 23:30:43;;;;;;;1.08;0.45;;;;;;;11.22;100.00;99208.03;4956716;28;20051;-84
2024/01/21 23:33:23;;;;;;;1.38;0.30;;;;;;;11.25;100.00;99217.56;4960641;28;20108;-84
2024/01/21 23:35:52;;;;;;;0.50;0.28;;;;;;;11.29;100.00;99219.28;4957827;28;20051;-84
2024/01/21 23:38:21;;;;;;;0.30;0.30;;;;;;;11.33;100.00;99218.41;4956173;28;20044;-84
2024/01/21 23:40:51;;;;;;;1.00;0.40;;;;;;;11.30;100.00;99201.16;4962828;28;20078;-84
2024/01/21 23:43:27;;;;;;;1.00;0.40;;;;;;;11.36;100.00;99199.44;4953755;28;20055;-84
2024/01/21 23:45:56;;;;;;;0.82;0.50;;;;;;;11.39;100.00;99215.00;4926563;29;20154;-83
2024/01/21 23:48:27;;;;;;;2.50;0.30;;;;;;;11.40;100.00;99208.94;4924040;29;20142;-83
2024/01/21 23:51:03;;;;;;;0.40;0.40;;;;;;;11.40;100.00;99204.63;4917378;29;20091;-85
2024/01/21 23:53:32;;;;;;;2.13;0.40;;;;;;;11.44;100.00;99203.75;4918149;29;20059;-83
2024/01/21 23:56:02;;;;;;;0.65;0.40;;;;;;;11.49;100.00;99206.34;4920072;29;20052;-83
2024/01/21 23:58:35;;;;;;;0.43;0.38;;;;;;;11.52;100.00;99216.72;4905128;29;20529;-84
